UAL131 KEWR-RJTT
Flight info
| Callsign | UAL131 |
|---|---|
| Flight time | N/A |
| Altitude | 30000 |
| Route | GAYEL Q812 SYR 4600N/08000W GRAVO POPLR 5300N/11000W 5400N/12000W NAAPP KATCH HMPTN GRIZZ CJAYY 5800N/16000W CHUUK OBOYD NATES NIKLL NYMPH NUZAN NRKEY NIPPI R220 NANAC Y810 AKRIT Y807 LALID Y807 MILIT Y807 POLIX |
| Aircraft | B772/H-SDE3FGIJ1KRWXY/LB2 |
Departure
| Time | 2026-05-04 14:45 |
|---|---|
| Airport | Newark Liberty International Airport (KEWR) |
Arrival
| Time | N/A |
|---|---|
| Airport | Tokyo Haneda International Airport (RJTT) |
| Time | Latitude | Longitude | Altitude | Speed | Heading |
|---|---|---|---|---|---|
| 2026-05-04 14:38 | 40.69814 | -74.17725 | 22 ft | 0 kts | 39° |
| 2026-05-04 14:40 | 40.69828 | -74.17710 | 22 ft | 7 kts | 39° |
| 2026-05-04 14:40 | 40.69894 | -74.17646 | 22 ft | 12 kts | 17° |
| 2026-05-04 14:40 | 40.69989 | -74.17674 | 22 ft | 17 kts | 358° |
| 2026-05-04 14:41 | 40.70124 | -74.17655 | 22 ft | 19 kts | 38° |
| 2026-05-04 14:41 | 40.70135 | -74.17499 | 22 ft | 17 kts | 95° |
| 2026-05-04 14:41 | 40.70114 | -74.17201 | 22 ft | 15 kts | 95° |
| 2026-05-04 14:42 | 40.70096 | -74.16933 | 22 ft | 14 kts | 94° |
| 2026-05-04 14:42 | 40.70088 | -74.16807 | 22 ft | 13 kts | 95° |
| 2026-05-04 14:42 | 40.70081 | -74.16687 | 22 ft | 12 kts | 95° |
| 2026-05-04 14:43 | 40.70074 | -74.16573 | 22 ft | 12 kts | 95° |
| 2026-05-04 14:43 | 40.70066 | -74.16460 | 22 ft | 12 kts | 96° |
| 2026-05-04 14:43 | 40.70039 | -74.16372 | 22 ft | 9 kts | 165° |
| 2026-05-04 14:43 | 40.69974 | -74.16400 | 22 ft | 9 kts | 205° |
| 2026-05-04 14:44 | 40.69885 | -74.16457 | 22 ft | 28 kts | 206° |
| 2026-05-04 14:44 | 40.69503 | -74.16700 | 23 ft | 91 kts | 206° |
| 2026-05-04 14:44 | 40.68770 | -74.17165 | 23 ft | 142 kts | 205° |
| 2026-05-04 14:44 | 40.67754 | -74.17831 | 107 ft | 176 kts | 208° |
| 2026-05-04 14:45 | 40.66620 | -74.18591 | 478 ft | 189 kts | 209° |
| 2026-05-04 14:45 | 40.65369 | -74.19122 | 1237 ft | 189 kts | 187° |
| 2026-05-04 14:45 | 40.64077 | -74.19087 | 1636 ft | 191 kts | 185° |
| 2026-05-04 14:45 | 40.62750 | -74.19365 | 1810 ft | 196 kts | 205° |
| 2026-05-04 14:46 | 40.61649 | -74.20361 | 2125 ft | 193 kts | 235° |
| 2026-05-04 14:46 | 40.61213 | -74.22048 | 2293 ft | 208 kts | 269° |
| 2026-05-04 14:46 | 40.61659 | -74.23897 | 2579 ft | 222 kts | 302° |
| 2026-05-04 14:46 | 40.62805 | -74.25320 | 3053 ft | 228 kts | 317° |
| 2026-05-04 14:47 | 40.64070 | -74.26595 | 3482 ft | 233 kts | 318° |
| 2026-05-04 14:47 | 40.65389 | -74.27925 | 3664 ft | 248 kts | 317° |
| 2026-05-04 14:47 | 40.66779 | -74.29337 | 3998 ft | 256 kts | 317° |
| 2026-05-04 14:47 | 40.68198 | -74.30772 | 4492 ft | 257 kts | 318° |
| 2026-05-04 14:48 | 40.69620 | -74.32210 | 4992 ft | 258 kts | 318° |
| 2026-05-04 14:48 | 40.71048 | -74.33649 | 5486 ft | 260 kts | 318° |
| 2026-05-04 14:48 | 40.72526 | -74.35045 | 5924 ft | 266 kts | 328° |
| 2026-05-04 14:48 | 40.74328 | -74.35699 | 6349 ft | 278 kts | 352° |
| 2026-05-04 14:49 | 40.76246 | -74.35754 | 6877 ft | 278 kts | 354° |
| 2026-05-04 14:49 | 40.78194 | -74.35756 | 7340 ft | 280 kts | 355° |
| 2026-05-04 14:49 | 40.80132 | -74.35755 | 7813 ft | 280 kts | 355° |
| 2026-05-04 14:49 | 40.82083 | -74.35754 | 8287 ft | 281 kts | 355° |
| 2026-05-04 14:50 | 40.84030 | -74.35753 | 8713 ft | 283 kts | 355° |
| 2026-05-04 14:50 | 40.86005 | -74.35752 | 9184 ft | 283 kts | 355° |
| 2026-05-04 14:50 | 40.87961 | -74.35751 | 9641 ft | 283 kts | 355° |
| 2026-05-04 14:50 | 40.88634 | -74.35751 | 9780 ft | 284 kts | 355° |